createdAt,value
2022-10-19T00:01:26.515Z,3.50
2022-10-19T00:11:26.273Z,3.20
2022-10-19T00:21:25.749Z,3.50
2022-10-19T00:31:25.419Z,3.10
2022-10-19T00:41:25.201Z,3.10
2022-10-19T00:51:24.998Z,3.60
2022-10-19T01:01:24.377Z,3.30
2022-10-19T01:11:23.958Z,2.80
2022-10-19T01:21:23.610Z,3.40
2022-10-19T01:31:23.389Z,3.40
2022-10-19T01:41:23.023Z,3.30
2022-10-19T01:51:22.666Z,3.20
2022-10-19T02:01:22.131Z,3.30
2022-10-19T02:11:21.773Z,3.10
2022-10-19T02:21:21.558Z,2.90
2022-10-19T02:31:21.048Z,2.80
2022-10-19T02:41:21.016Z,2.90
2022-10-19T02:51:20.478Z,3.40
2022-10-19T03:01:20.045Z,3.10
2022-10-19T03:11:19.596Z,3.70
2022-10-19T03:21:19.242Z,3.80
2022-10-19T03:31:19.035Z,4.20
2022-10-19T03:41:18.515Z,3.50
2022-10-19T03:51:18.495Z,3.90
2022-10-19T04:01:17.852Z,3.60
2022-10-19T04:11:17.581Z,3.20
2022-10-19T04:21:11.796Z,3.30
2022-10-19T04:31:11.599Z,3.30
2022-10-19T04:41:11.070Z,4.10
2022-10-19T04:51:10.697Z,3.70
2022-10-19T05:01:10.526Z,4.30
2022-10-19T05:11:10.039Z,3.60
2022-10-19T05:21:09.630Z,3.40
2022-10-19T05:31:09.084Z,4.30
2022-10-19T05:41:08.686Z,4.70
2022-10-19T05:51:08.419Z,4.50
2022-10-19T06:01:07.860Z,5.20
2022-10-19T06:11:07.630Z,5.90
2022-10-19T06:21:07.063Z,5.90
2022-10-19T06:31:07.283Z,6.20
2022-10-19T06:41:06.259Z,6.30
2022-10-19T06:51:06.527Z,5.90
2022-10-19T07:01:05.603Z,7.40
2022-10-19T07:11:05.213Z,6.00
2022-10-19T07:20:59.636Z,6.30
2022-10-19T07:30:59.243Z,6.10
2022-10-19T07:40:58.844Z,6.00
2022-10-19T07:50:58.586Z,5.90
2022-10-19T08:00:58.202Z,6.00
2022-10-19T08:10:57.819Z,6.30
2022-10-19T08:20:58.700Z,5.70
2022-10-19T08:30:56.889Z,6.30
2022-10-19T08:40:56.638Z,4.90
2022-10-19T08:50:56.243Z,5.20
2022-10-19T09:00:55.684Z,4.50
2022-10-19T09:10:55.468Z,4.50
2022-10-19T09:20:54.915Z,4.50
2022-10-19T09:30:54.845Z,4.10
2022-10-19T09:40:54.144Z,4.20
2022-10-19T09:50:54.082Z,3.90
2022-10-19T10:00:53.896Z,3.70
2022-10-19T10:10:53.933Z,3.90
2022-10-19T10:20:53.390Z,3.90
2022-10-19T10:30:53.194Z,4.40
2022-10-19T10:40:53.084Z,4.00
2022-10-19T10:50:53.140Z,4.70
2022-10-19T11:00:53.053Z,4.20
2022-10-19T11:10:52.904Z,4.20
2022-10-19T11:20:52.899Z,4.00
2022-10-19T11:30:52.916Z,3.80
2022-10-19T11:41:13.038Z,3.90
2022-10-19T11:50:53.984Z,3.30
2022-10-19T12:00:58.260Z,3.50
2022-10-19T12:10:58.054Z,3.60
2022-10-19T12:20:57.348Z,3.00
2022-10-19T12:30:57.253Z,4.30
2022-10-19T12:40:56.531Z,3.60
2022-10-19T12:50:56.453Z,3.30
2022-10-19T13:00:55.936Z,4.90
2022-10-19T13:10:55.369Z,4.70
2022-10-19T13:20:55.163Z,3.90
2022-10-19T13:31:03.272Z,4.00
2022-10-19T13:40:59.755Z,4.20
2022-10-19T13:50:59.377Z,3.60
2022-10-19T14:00:59.136Z,4.30
2022-10-19T14:11:00.888Z,3.80
2022-10-19T14:20:58.183Z,3.90
2022-10-19T14:30:57.820Z,4.10
2022-10-19T14:41:03.064Z,3.90
2022-10-19T14:51:02.678Z,3.50
2022-10-19T15:01:02.278Z,5.10
2022-10-19T15:11:01.865Z,3.90
2022-10-19T15:21:11.547Z,4.40
2022-10-19T15:31:00.919Z,3.70
2022-10-19T15:41:00.666Z,3.80
2022-10-19T15:51:00.405Z,3.90
2022-10-19T16:01:05.687Z,4.00
2022-10-19T16:11:05.297Z,3.60
2022-10-19T16:21:04.923Z,3.70
2022-10-19T16:31:04.541Z,4.10
2022-10-19T16:41:04.014Z,5.80
2022-10-19T16:51:03.978Z,8.20
2022-10-19T17:01:03.275Z,5.10
2022-10-19T17:11:02.935Z,5.40
2022-10-19T17:21:02.565Z,5.30
2022-10-19T17:31:02.214Z,3.50
2022-10-19T17:41:01.972Z,3.50
2022-10-19T17:51:01.971Z,3.90
2022-10-19T18:01:01.948Z,3.80
2022-10-19T18:11:02.166Z,3.80
2022-10-19T18:21:02.017Z,4.00
2022-10-19T18:31:02.035Z,4.00
2022-10-19T18:41:02.077Z,4.10
2022-10-19T18:51:02.029Z,4.40
2022-10-19T19:01:01.990Z,6.10
2022-10-19T19:11:02.220Z,5.30
2022-10-19T19:21:02.035Z,4.50
2022-10-19T19:31:01.805Z,4.80
2022-10-19T19:41:01.937Z,4.60
2022-10-19T19:51:01.875Z,4.90
2022-10-19T20:01:01.718Z,4.90
2022-10-19T20:11:01.808Z,5.00
2022-10-19T20:21:01.400Z,4.90
2022-10-19T20:31:01.557Z,5.10
2022-10-19T20:41:01.982Z,5.00
2022-10-19T20:51:00.874Z,4.90
2022-10-19T21:01:00.670Z,5.10
2022-10-19T21:11:00.573Z,5.00
2022-10-19T21:21:00.204Z,5.00
2022-10-19T21:31:00.210Z,5.20
2022-10-19T21:40:59.827Z,5.50
2022-10-19T21:50:59.815Z,5.40
2022-10-19T22:00:59.488Z,5.50
2022-10-19T22:10:59.496Z,6.00
2022-10-19T22:20:59.254Z,6.30
2022-10-19T22:30:59.322Z,6.30
2022-10-19T22:40:59.217Z,6.60
2022-10-19T22:50:59.058Z,6.20
2022-10-19T23:00:58.789Z,6.00
2022-10-19T23:10:58.845Z,5.70
2022-10-19T23:20:58.743Z,6.10
2022-10-19T23:30:58.682Z,6.20
2022-10-19T23:40:58.585Z,5.50
2022-10-19T23:50:58.276Z,6.70
